Time;durP1;ratioP1;P1;durP2;ratioP2;P2;SDS_P1;SDS_P2;PMS_P1;PMS_P2;Temp;Humidity;BMP_temperature;BMP_pressure;BME280_temperature;BME280_humidity;BME280_pressure;Samples;Min_cycle;Max_cycle;Signal;HPM_P1;HPM_P2
2023/04/13 00:00:40;;;;;;;68.53;3.85;;;7.50;99.90;;;;;;5153603;23;20216;-79
2023/04/13 00:03:07;;;;;;;65.85;5.00;;;7.50;99.90;;;;;;5081800;23;20260;-79
2023/04/13 00:05:33;;;;;;;67.63;4.93;;;7.60;99.90;;;;;;5017663;28;20161;-80
2023/04/13 00:08:01;;;;;;;65.10;4.10;;;7.70;99.90;;;;;;5018086;28;20166;-80
2023/04/13 00:10:30;;;;;;;64.07;3.60;;;7.70;99.90;;;;;;5016766;28;20227;-79
2023/04/13 00:13:00;;;;;;;65.63;3.95;;;7.80;97.80;;;;;;5016410;28;20255;-79
2023/04/13 00:15:26;;;;;;;63.90;4.03;;;7.80;96.50;;;;;;5017589;28;20188;-80
2023/04/13 00:17:52;;;;;;;64.45;4.03;;;7.80;95.20;;;;;;5016273;28;20247;-80
2023/04/13 00:20:18;;;;;;;64.50;3.90;;;7.90;96.60;;;;;;5039021;23;20212;-88
2023/04/13 00:22:46;;;;;;;63.58;4.30;;;7.80;95.30;;;;;;5043036;28;20495;-88
2023/04/13 00:25:13;;;;;;;65.65;4.30;;;7.80;91.90;;;;;;5041368;28;20172;-88
2023/04/13 00:27:41;;;;;;;65.93;4.10;;;7.80;91.70;;;;;;5040551;28;20165;-88
2023/04/13 00:30:13;;;;;;;65.20;4.22;;;7.80;93.90;;;;;;5041666;28;20169;-88
2023/04/13 00:32:43;;;;;;;63.95;3.80;;;7.80;91.80;;;;;;5041758;28;20164;-88
2023/04/13 00:35:10;;;;;;;66.22;3.42;;;7.90;93.10;;;;;;5042183;28;20214;-88
2023/04/13 00:37:37;;;;;;;64.00;4.10;;;7.90;91.00;;;;;;5041329;28;20169;-88
2023/04/13 00:40:07;;;;;;;64.57;3.45;;;7.90;87.20;;;;;;5040998;28;20171;-88
2023/04/13 00:42:33;;;;;;;65.45;3.55;;;7.90;85.30;;;;;;5042192;28;20165;-88
2023/04/13 00:44:59;;;;;;;65.33;3.73;;;7.90;89.50;;;;;;5041140;28;20192;-88
2023/04/13 00:47:28;;;;;;;64.87;3.27;;;8.00;80.70;;;;;;5042773;28;20476;-87
2023/04/13 00:49:59;;;;;;;64.28;3.42;;;8.00;80.90;;;;;;5041494;28;20826;-87
2023/04/13 00:52:25;;;;;;;63.88;3.20;;;8.00;85.00;;;;;;5042134;28;20169;-88
2023/04/13 00:54:55;;;;;;;63.38;4.07;;;8.10;83.20;;;;;;5041131;28;20247;-88
2023/04/13 00:57:22;;;;;;;62.88;3.15;;;8.20;77.50;;;;;;5043211;28;20165;-88
2023/04/13 00:59:49;;;;;;;63.80;3.42;;;8.10;80.80;;;;;;5041954;28;20252;-89
2023/04/13 01:02:24;;;;;;;68.13;3.70;;;8.10;81.90;;;;;;5042702;28;20166;-88
2023/04/13 01:04:51;;;;;;;66.47;4.30;;;8.10;85.90;;;;;;5042326;28;20180;-88
2023/04/13 01:07:36;;;;;;;74.05;3.95;;;8.10;85.10;;;;;;5043449;28;20172;-88
2023/04/13 01:10:18;;;;;;;65.97;3.40;;;8.10;84.20;;;;;;5042700;28;20180;-88
2023/04/13 01:13:15;;;;;;;65.97;3.67;;;8.00;80.90;;;;;;5042576;28;20168;-87
2023/04/13 01:15:48;;;;;;;64.20;3.58;;;8.00;82.20;;;;;;5041219;28;20199;-88
2023/04/13 01:18:16;;;;;;;63.63;3.50;;;8.00;83.20;;;;;;5042080;28;20153;-88
2023/04/13 01:20:44;;;;;;;63.30;3.28;;;8.00;81.70;;;;;;5041476;28;20247;-88
2023/04/13 01:23:23;;;;;;;67.38;3.50;;;7.90;81.20;;;;;;5042818;28;20656;-87
2023/04/13 01:26:00;;;;;;;64.50;3.53;;;7.90;87.00;;;;;;5040341;28;20161;-88
2023/04/13 01:28:27;;;;;;;64.20;3.42;;;7.90;86.50;;;;;;5043226;28;20157;-87
2023/04/13 01:30:56;;;;;;;64.10;3.50;;;7.90;86.90;;;;;;5041319;28;20218;-87
2023/04/13 01:33:24;;;;;;;65.05;3.78;;;7.90;89.40;;;;;;5042013;28;20185;-88
2023/04/13 01:35:50;;;;;;;64.00;4.07;;;8.00;88.90;;;;;;5040842;28;20335;-88
2023/04/13 01:38:25;;;;;;;64.20;4.25;;;8.00;86.10;;;;;;5041370;28;20641;-88
2023/04/13 01:40:51;;;;;;;66.15;4.70;;;8.00;86.70;;;;;;5042496;28;20145;-88
2023/04/13 01:43:23;;;;;;;64.95;4.45;;;7.90;87.30;;;;;;5044197;28;20196;-88
2023/04/13 01:46:03;;;;;;;65.53;4.15;;;7.90;84.90;;;;;;5042335;28;20252;-87
2023/04/13 01:48:33;;;;;;;66.57;4.50;;;8.00;80.40;;;;;;5044230;28;20501;-87
2023/04/13 01:51:10;;;;;;;63.45;3.55;;;8.00;85.00;;;;;;5047705;28;20173;-87
2023/04/13 01:53:44;;;;;;;64.32;3.22;;;8.00;80.60;;;;;;5049271;28;20192;-88
2023/04/13 01:56:11;;;;;;;63.00;3.45;;;8.00;82.20;;;;;;5049112;28;20149;-87
2023/04/13 01:58:39;;;;;;;63.70;4.22;;;8.00;84.20;;;;;;5047596;28;20161;-87
2023/04/13 02:01:06;;;;;;;64.05;4.15;;;8.00;85.30;;;;;;5048573;28;20165;-87
2023/04/13 02:03:34;;;;;;;66.57;4.80;;;8.00;83.10;;;;;;5047248;28;20193;-87
2023/04/13 02:06:01;;;;;;;63.17;3.92;;;8.00;80.70;;;;;;5046087;28;20165;-89
2023/04/13 02:08:28;;;;;;;64.00;3.95;;;8.00;81.80;;;;;;5047450;28;20169;-89
2023/04/13 02:10:54;;;;;;;63.10;3.65;;;8.10;84.60;;;;;;5047416;28;20207;-89
2023/04/13 02:13:19;;;;;;;63.60;3.67;;;8.00;83.10;;;;;;5047685;28;20185;-89
2023/04/13 02:15:45;;;;;;;62.70;3.67;;;8.00;85.20;;;;;;5047719;28;20435;-87
2023/04/13 02:18:12;;;;;;;63.93;3.73;;;8.10;84.60;;;;;;5044957;28;20161;-88
2023/04/13 02:20:42;;;;;;;64.22;4.15;;;8.10;85.40;;;;;;5045056;28;20427;-89
2023/04/13 02:23:09;;;;;;;63.08;3.40;;;8.10;83.40;;;;;;5046045;28;20399;-88
2023/04/13 02:25:35;;;;;;;64.80;4.05;;;8.10;83.10;;;;;;5047407;28;20161;-89
2023/04/13 02:28:01;;;;;;;64.45;3.75;;;8.10;82.00;;;;;;5046071;28;20169;-88
2023/04/13 02:30:28;;;;;;;64.00;4.10;;;8.10;86.20;;;;;;5045408;28;20173;-88
2023/04/13 02:32:54;;;;;;;63.10;3.45;;;8.00;84.90;;;;;;5045667;28;20178;-87
2023/04/13 02:35:21;;;;;;;64.22;3.47;;;8.10;87.60;;;;;;5046963;28;20258;-88
2023/04/13 02:37:47;;;;;;;63.97;3.53;;;8.10;84.90;;;;;;5047043;28;20166;-89
2023/04/13 02:40:13;;;;;;;64.93;3.08;;;8.10;88.30;;;;;;5047146;28;20165;-88
2023/04/13 02:42:40;;;;;;;63.72;4.00;;;8.20;87.00;;;;;;5044976;28;20169;-88
2023/04/13 02:45:07;;;;;;;64.30;3.88;;;8.20;86.90;;;;;;5044671;28;20165;-89
2023/04/13 02:47:33;;;;;;;62.85;3.20;;;8.20;87.10;;;;;;5046842;28;20170;-88
2023/04/13 02:50:02;;;;;;;66.07;3.73;;;8.10;81.10;;;;;;5044790;28;20173;-88
2023/04/13 02:52:29;;;;;;;65.22;4.05;;;8.10;83.20;;;;;;5044911;28;20423;-88
2023/04/13 02:54:54;;;;;;;63.65;3.40;;;8.10;82.70;;;;;;5044676;28;20189;-89
2023/04/13 02:57:21;;;;;;;63.30;3.53;;;8.10;84.50;;;;;;5046467;28;20583;-88
2023/04/13 02:59:47;;;;;;;66.47;3.80;;;8.10;85.30;;;;;;5047439;28;20165;-87
2023/04/13 03:02:13;;;;;;;64.53;3.85;;;8.10;86.70;;;;;;5045719;28;20169;-88
2023/04/13 03:04:39;;;;;;;63.42;3.50;;;8.20;88.20;;;;;;5047227;28;20603;-88
2023/04/13 03:07:08;;;;;;;67.27;3.83;;;8.10;81.60;;;;;;5047667;28;20196;-87
2023/04/13 03:09:35;;;;;;;63.20;3.97;;;8.10;84.10;;;;;;5045980;28;20200;-88
2023/04/13 03:12:01;;;;;;;63.30;3.88;;;8.00;87.20;;;;;;5047306;28;20184;-88
2023/04/13 03:14:28;;;;;;;67.10;4.25;;;8.00;88.00;;;;;;5047859;28;20581;-89
2023/04/13 03:16:57;;;;;;;63.30;4.07;;;8.00;89.70;;;;;;5046945;28;20165;-88
2023/04/13 03:19:24;;;;;;;64.72;4.30;;;8.00;90.60;;;;;;5047358;28;20249;-89
2023/04/13 03:21:49;;;;;;;64.13;4.38;;;8.00;91.30;;;;;;5048365;28;20268;-88
2023/04/13 03:24:15;;;;;;;63.97;4.30;;;8.00;92.00;;;;;;5047829;28;20192;-89
2023/04/13 03:26:41;;;;;;;64.60;4.07;;;8.00;92.80;;;;;;5046945;28;20169;-88
2023/04/13 03:29:07;;;;;;;63.50;4.03;;;8.00;95.00;;;;;;5047480;28;20169;-88
2023/04/13 03:31:32;;;;;;;63.60;4.00;;;8.00;93.20;;;;;;5045180;28;20224;-88
2023/04/13 03:33:58;;;;;;;65.90;5.00;;;8.00;93.60;;;;;;5045823;28;20283;-87
2023/04/13 03:36:26;;;;;;;65.40;4.00;;;8.00;94.10;;;;;;5046849;28;20215;-88
2023/04/13 03:38:52;;;;;;;62.85;2.90;;;8.00;96.00;;;;;;5047400;28;20172;-88
2023/04/13 03:41:18;;;;;;;64.85;5.45;;;8.00;96.00;;;;;;5047355;28;20169;-88
2023/04/13 03:43:44;;;;;;;63.60;3.47;;;7.90;96.60;;;;;;5045088;28;20185;-88
2023/04/13 03:46:11;;;;;;;62.97;3.50;;;8.00;96.40;;;;;;5044410;28;20408;-88
2023/04/13 03:48:39;;;;;;;64.78;4.80;;;8.00;97.40;;;;;;5044731;28;20837;-89
2023/04/13 03:51:05;;;;;;;65.43;3.58;;;8.00;96.80;;;;;;5046704;28;20165;-88
2023/04/13 03:53:31;;;;;;;66.47;3.83;;;8.00;97.20;;;;;;5046634;28;20275;-89
2023/04/13 03:55:57;;;;;;;65.93;3.90;;;8.10;97.30;;;;;;5045518;28;20173;-89
2023/04/13 03:58:23;;;;;;;68.73;4.23;;;8.10;97.40;;;;;;5045251;28;20165;-88
2023/04/13 04:00:49;;;;;;;66.10;4.30;;;8.00;98.30;;;;;;5045601;28;20153;-88
2023/04/13 04:03:16;;;;;;;64.18;4.05;;;8.00;98.70;;;;;;5043798;28;20181;-88
2023/04/13 04:05:42;;;;;;;63.50;3.42;;;8.10;96.10;;;;;;5046391;28;20215;-88
2023/04/13 04:08:07;;;;;;;63.17;3.47;;;8.10;98.30;;;;;;5044727;28;20184;-88
2023/04/13 04:10:33;;;;;;;63.47;3.97;;;8.00;99.50;;;;;;5044452;28;20408;-88
2023/04/13 04:12:59;;;;;;;64.67;3.47;;;8.10;98.40;;;;;;5046439;28;20412;-87
2023/04/13 04:15:25;;;;;;;63.80;4.17;;;8.10;98.00;;;;;;5044297;28;20541;-89
2023/04/13 04:17:51;;;;;;;65.00;3.53;;;8.10;97.20;;;;;;5043498;28;20420;-88
2023/04/13 04:20:17;;;;;;;66.50;4.13;;;8.10;97.90;;;;;;5044678;28;20204;-88
2023/04/13 04:22:46;;;;;;;64.68;4.10;;;8.20;97.90;;;;;;5043611;28;20169;-89
2023/04/13 04:25:19;;;;;;;63.50;3.83;;;8.20;96.40;;;;;;5044143;28;20240;-88
2023/04/13 04:27:45;;;;;;;64.80;3.85;;;8.20;95.60;;;;;;5044128;28;20153;-88
2023/04/13 04:30:12;;;;;;;65.07;4.00;;;8.20;96.90;;;;;;5045423;28;20319;-88
2023/04/13 04:32:40;;;;;;;66.55;4.00;;;8.20;97.00;;;;;;5043707;28;20416;-88
2023/04/13 04:35:07;;;;;;;64.75;4.20;;;8.30;96.60;;;;;;5044920;28;20183;-88
2023/04/13 04:37:36;;;;;;;62.90;3.53;;;8.30;95.20;;;;;;5042527;28;20165;-89
2023/04/13 04:40:09;;;;;;;63.85;3.80;;;8.30;94.30;;;;;;5044281;28;20185;-88
2023/04/13 04:42:38;;;;;;;65.03;3.60;;;8.30;94.40;;;;;;5044890;28;20172;-88
2023/04/13 04:45:05;;;;;;;65.20;3.85;;;8.40;95.70;;;;;;5041068;28;20176;-87
2023/04/13 04:47:32;;;;;;;65.82;5.30;;;8.40;95.90;;;;;;5041505;28;20180;-88
2023/04/13 04:49:58;;;;;;;63.90;4.05;;;8.40;95.80;;;;;;5043671;28;20172;-88
2023/04/13 04:52:26;;;;;;;65.82;3.70;;;8.40;95.90;;;;;;5042767;28;20689;-89
2023/04/13 04:54:52;;;;;;;65.53;4.90;;;8.40;95.50;;;;;;5041598;28;20207;-87
2023/04/13 04:57:19;;;;;;;68.50;4.27;;;8.40;94.70;;;;;;5042085;28;20200;-88
2023/04/13 04:59:45;;;;;;;64.50;4.35;;;8.50;94.20;;;;;;5043784;28;20397;-89
2023/04/13 05:02:10;;;;;;;68.70;5.00;;;8.40;97.10;;;;;;5042720;28;20169;-88
2023/04/13 05:04:38;;;;;;;63.70;3.83;;;8.40;97.00;;;;;;5042215;28;20720;-88
2023/04/13 05:07:04;;;;;;;64.13;3.50;;;8.40;97.00;;;;;;5041969;28;20549;-89
2023/04/13 05:09:33;;;;;;;65.07;3.88;;;8.40;96.60;;;;;;5043284;28;20158;-89
2023/04/13 05:12:03;;;;;;;63.20;3.53;;;8.30;97.70;;;;;;5042493;28;20198;-88
2023/04/13 05:14:29;;;;;;;63.97;4.07;;;8.40;97.30;;;;;;5043209;28;20192;-88
2023/04/13 05:16:55;;;;;;;63.80;3.67;;;8.40;94.90;;;;;;5041787;28;20648;-88
2023/04/13 05:19:20;;;;;;;65.50;4.07;;;8.40;95.80;;;;;;5043725;28;20165;-88
2023/04/13 05:21:46;;;;;;;66.30;3.90;;;8.50;95.30;;;;;;5043446;28;20177;-88
2023/04/13 05:24:12;;;;;;;64.50;3.63;;;8.50;97.20;;;;;;5041728;28;20195;-88
2023/04/13 05:26:38;;;;;;;66.10;4.30;;;8.40;97.90;;;;;;5045628;28;20207;-88
2023/04/13 05:29:05;;;;;;;63.37;3.63;;;8.50;96.20;;;;;;5045990;28;20422;-89
2023/04/13 05:31:31;;;;;;;63.22;3.83;;;8.40;99.90;;;;;;5045306;28;20177;-88
2023/04/13 05:33:57;;;;;;;63.55;3.85;;;8.50;97.30;;;;;;5045633;28;20608;-87
2023/04/13 05:36:23;;;;;;;63.27;3.70;;;8.40;98.80;;;;;;5045507;28;20164;-88
2023/04/13 05:38:48;;;;;;;62.90;4.00;;;8.50;97.70;;;;;;5044779;28;20161;-88
2023/04/13 05:41:14;;;;;;;63.87;3.90;;;8.50;97.30;;;;;;5043185;28;20213;-86
2023/04/13 05:43:41;;;;;;;64.40;5.40;;;8.50;98.00;;;;;;5039999;28;20181;-87
2023/04/13 05:46:09;;;;;;;66.80;4.45;;;8.50;99.10;;;;;;5039261;28;20442;-87
2023/04/13 05:48:35;;;;;;;65.03;4.10;;;8.50;99.90;;;;;;5038056;28;20192;-87
2023/04/13 05:51:01;;;;;;;64.90;4.40;;;8.50;99.90;;;;;;5038007;28;20648;-86
2023/04/13 05:53:26;;;;;;;63.87;4.83;;;8.50;99.90;;;;;;5038456;28;20603;-88
2023/04/13 05:55:53;;;;;;;64.97;3.87;;;8.40;99.90;;;;;;5038307;28;20182;-87
2023/04/13 05:58:19;;;;;;;64.60;4.10;;;8.50;99.90;;;;;;5040173;28;20157;-86
2023/04/13 06:00:45;;;;;;;64.73;3.50;;;8.50;99.90;;;;;;5038630;28;20173;-87
2023/04/13 06:03:11;;;;;;;63.30;4.37;;;8.50;99.90;;;;;;5039905;28;20453;-88
2023/04/13 06:05:37;;;;;;;65.00;4.13;;;8.40;99.90;;;;;;5038736;28;20309;-86
2023/04/13 06:08:03;;;;;;;62.80;4.03;;;8.40;99.90;;;;;;5039144;28;20195;-87
2023/04/13 06:10:29;;;;;;;62.97;4.17;;;8.40;99.90;;;;;;5039888;28;20407;-86
2023/04/13 06:12:55;;;;;;;64.27;4.10;;;8.40;99.90;;;;;;5039090;28;20419;-85
2023/04/13 06:15:21;;;;;;;63.10;3.50;;;8.40;99.90;;;;;;5038930;28;20447;-86
2023/04/13 06:17:49;;;;;;;63.17;3.77;;;8.50;99.50;;;;;;5040467;28;20513;-87
2023/04/13 06:20:18;;;;;;;63.63;3.60;;;8.40;98.30;;;;;;5104107;23;20217;-81
2023/04/13 06:22:49;;;;;;;66.45;3.95;;;8.50;97.00;;;;;;5020141;28;20178;-81
2023/04/13 06:25:24;;;;;;;64.68;4.43;;;8.50;99.60;;;;;;5020406;28;20174;-81
2023/04/13 06:27:56;;;;;;;64.05;3.50;;;8.40;99.90;;;;;;5019838;28;20223;-81
2023/04/13 06:30:24;;;;;;;63.08;4.00;;;8.50;99.90;;;;;;5019184;28;20247;-81
2023/04/13 06:33:10;;;;;;;62.72;4.22;;;8.50;98.10;;;;;;5018713;28;20173;-81
2023/04/13 06:36:06;;;;;;;64.18;3.63;;;8.50;97.70;;;;;;5019201;28;20205;-81
2023/04/13 06:38:46;;;;;;;63.03;3.90;;;8.50;97.80;;;;;;5014243;28;20186;-81
2023/04/13 06:41:32;;;;;;;63.97;3.75;;;8.60;99.70;;;;;;5018845;28;20597;-81
2023/04/13 06:44:06;;;;;;;68.57;3.97;;;8.60;99.90;;;;;;5020055;28;20186;-81
2023/04/13 06:47:04;;;;;;;64.30;4.30;;;8.70;98.30;;;;;;5019851;28;20169;-81
2023/04/13 06:49:35;;;;;;;63.25;3.83;;;8.70;97.50;;;;;;4981216;28;20698;-81
2023/04/13 06:52:06;;;;;;;63.00;3.55;;;8.80;96.90;;;;;;4997972;28;20190;-81
2023/04/13 06:54:32;;;;;;;63.20;3.60;;;8.80;97.50;;;;;;5016342;28;20213;-81
2023/04/13 06:57:04;;;;;;;65.55;3.78;;;9.00;95.90;;;;;;5019048;28;20258;-81
2023/04/13 06:59:30;;;;;;;62.88;3.60;;;9.00;94.40;;;;;;5019301;28;20165;-81
2023/04/13 07:01:55;;;;;;;67.60;3.80;;;9.00;96.30;;;;;;5019191;28;20158;-81
2023/04/13 07:04:27;;;;;;;65.10;3.20;;;9.00;98.90;;;;;;5019291;28;20700;-81
2023/04/13 07:06:58;;;;;;;66.85;3.50;;;9.10;95.90;;;;;;5019205;28;20170;-82
2023/04/13 07:09:26;;;;;;;64.35;3.55;;;9.20;97.10;;;;;;5019376;28;20174;-81
2023/04/13 07:11:55;;;;;;;66.05;2.85;;;9.20;93.90;;;;;;5018814;28;20217;-81
2023/04/13 07:14:45;;;;;;;63.85;3.40;;;9.30;91.20;;;;;;5018552;28;20205;-80
2023/04/13 07:17:11;;;;;;;62.90;2.92;;;9.40;93.10;;;;;;5019417;28;20186;-81
2023/04/13 07:19:37;;;;;;;65.23;3.57;;;9.50;91.50;;;;;;5018942;28;20652;-81
2023/04/13 07:22:03;;;;;;;63.17;3.30;;;9.50;92.30;;;;;;5018994;28;20940;-81
2023/04/13 07:24:30;;;;;;;62.93;3.30;;;9.30;96.30;;;;;;5017300;28;20189;-81
2023/04/13 07:26:58;;;;;;;63.38;3.85;;;9.30;96.50;;;;;;5018867;28;20521;-81
2023/04/13 07:29:25;;;;;;;69.45;3.78;;;9.20;95.40;;;;;;5019264;28;20173;-80
2023/04/13 07:31:51;;;;;;;64.53;4.85;;;9.40;98.90;;;;;;5018658;28;20170;-81
2023/04/13 07:34:17;;;;;;;65.03;4.30;;;9.50;99.90;;;;;;5018928;28;20198;-81
2023/04/13 07:39:28;;;;;;;64.15;3.40;;;9.80;97.30;;;;;;5023937;28;20212;-81
2023/04/13 07:42:27;;;;;;;63.30;3.22;;;9.70;95.20;;;;;;5025303;28;20138;-81
2023/04/13 07:45:36;;;;;;;63.95;3.30;;;9.90;93.70;;;;;;5025833;28;20193;-81
2023/04/13 07:48:18;;;;;;;64.13;3.35;;;9.90;89.30;;;;;;5024515;28;20177;-81
2023/04/13 07:50:53;;;;;;;63.55;3.13;;;10.00;79.80;;;;;;5022638;28;20165;-81
2023/04/13 07:53:27;;;;;;;65.40;3.55;;;10.00;87.10;;;;;;5024909;28;20177;-81
2023/04/13 07:55:53;;;;;;;68.15;4.00;;;10.00;90.10;;;;;;5024927;28;20181;-81
2023/04/13 07:59:10;;;;;;;64.63;4.03;;;10.00;84.50;;;;;;5023997;28;20178;-81
2023/04/13 08:01:51;;;;;;;64.43;4.45;;;10.10;74.50;;;;;;5022648;28;20188;-81
2023/04/13 08:04:20;;;;;;;66.05;4.57;;;10.00;74.50;;;;;;5024195;28;20189;-81
2023/04/13 08:06:52;;;;;;;64.65;3.92;;;10.00;71.30;;;;;;5023429;28;20150;-81
2023/04/13 08:09:18;;;;;;;63.83;3.45;;;10.00;82.20;;;;;;5025165;28;20153;-81
2023/04/13 08:11:44;;;;;;;64.57;3.95;;;9.90;90.00;;;;;;5023938;28;20150;-81
2023/04/13 08:14:13;;;;;;;65.17;4.07;;;10.00;89.30;;;;;;5024219;28;20189;-81
2023/04/13 08:16:38;;;;;;;64.80;4.05;;;10.00;84.60;;;;;;5024086;28;20177;-81
2023/04/13 08:19:07;;;;;;;65.40;4.50;;;10.10;86.50;;;;;;5021709;28;20522;-81
2023/04/13 08:21:39;;;;;;;66.60;3.78;;;10.00;91.10;;;;;;5022659;28;20146;-81
2023/04/13 08:24:13;;;;;;;63.95;3.72;;;10.20;82.90;;;;;;5021387;28;20272;-81
2023/04/13 08:26:45;;;;;;;71.65;4.88;;;10.20;83.70;;;;;;5022141;28;20154;-81
2023/04/13 08:29:12;;;;;;;68.07;3.90;;;10.30;82.70;;;;;;5020158;28;20165;-81
2023/04/13 08:31:39;;;;;;;66.32;4.25;;;10.30;81.20;;;;;;5022760;28;20586;-83
2023/04/13 08:34:05;;;;;;;66.57;5.13;;;10.30;83.90;;;;;;5021314;28;20194;-81
2023/04/13 08:36:32;;;;;;;67.07;4.85;;;10.20;78.60;;;;;;5023296;28;20146;-81
2023/04/13 08:39:00;;;;;;;67.05;4.15;;;10.20;88.00;;;;;;5019909;28;20174;-81
2023/04/13 08:41:26;;;;;;;66.80;4.53;;;10.30;82.00;;;;;;5021127;28;20172;-81
2023/04/13 08:43:53;;;;;;;71.67;5.17;;;10.20;74.00;;;;;;5020454;28;20721;-80
2023/04/13 08:46:19;;;;;;;70.75;6.15;;;10.20;72.40;;;;;;5020351;28;20436;-80
2023/04/13 08:48:47;;;;;;;67.00;5.05;;;10.20;72.90;;;;;;5021387;28;20166;-80
2023/04/13 08:51:13;;;;;;;77.95;5.32;;;10.10;66.50;;;;;;5020925;28;20186;-81
2023/04/13 08:53:39;;;;;;;72.03;4.82;;;10.20;68.70;;;;;;5018602;28;20213;-80
2023/04/13 08:56:23;;;;;;;68.57;5.30;;;10.20;78.60;;;;;;5098671;23;20213;-80
2023/04/13 08:59:20;;;;;;;65.30;4.70;;;10.30;61.10;;;;;;5017740;28;20158;-81
2023/04/13 09:01:55;;;;;;;73.82;6.88;;;10.30;69.50;;;;;;5018331;28;20182;-80
2023/04/13 09:04:27;;;;;;;73.05;6.60;;;10.30;60.20;;;;;;5015782;28;20288;-80
2023/04/13 09:07:25;;;;;;;69.75;6.15;;;10.30;64.20;;;;;;5018522;28;20196;-80
2023/04/13 09:10:15;;;;;;;67.72;5.10;;;10.40;63.90;;;;;;5017696;28;20181;-81
2023/04/13 09:13:09;;;;;;;69.22;5.13;;;10.50;62.40;;;;;;5014638;28;20178;-81
2023/04/13 09:15:58;;;;;;;68.68;4.40;;;10.60;55.40;;;;;;5014461;28;20260;-80
2023/04/13 09:18:47;;;;;;;69.95;5.18;;;10.70;56.20;;;;;;5017390;28;20188;-80
2023/04/13 09:25:15;;;;;;;67.07;4.35;;;10.70;63.50;;;;;;4980937;28;20205;-81
2023/04/13 09:27:59;;;;;;;69.07;5.65;;;10.90;51.60;;;;;;5002693;28;20257;-80
2023/04/13 09:30:40;;;;;;;70.13;4.65;;;11.00;50.90;;;;;;5016930;28;20146;-80
2023/04/13 09:33:44;;;;;;;76.80;5.03;;;11.10;54.70;;;;;;5024766;23;20213;-80
2023/04/13 09:40:39;;;;;;;69.68;5.18;;;11.20;42.20;;;;;;5037068;28;20673;-81
2023/04/13 09:46:26;;;;;;;71.47;5.97;;;11.10;30.60;;;;;;5036811;28;20776;-81
2023/04/13 09:49:49;;;;;;;71.07;5.63;;;11.00;33.10;;;;;;5037950;28;20177;-81
2023/04/13 09:52:58;;;;;;;73.47;6.75;;;11.10;32.60;;;;;;5015616;28;20177;-81
2023/04/13 09:55:26;;;;;;;68.10;6.10;;;11.10;28.40;;;;;;5020607;28;20251;-80
2023/04/13 09:57:58;;;;;;;71.65;5.32;;;11.10;38.70;;;;;;5036900;28;20168;-80
2023/04/13 10:00:39;;;;;;;69.60;5.55;;;11.10;61.80;;;;;;5036141;28;20519;-79
2023/04/13 10:03:12;;;;;;;68.18;5.10;;;10.80;80.50;;;;;;5035285;28;20207;-79
2023/04/13 10:05:59;;;;;;;69.43;5.10;;;10.70;93.50;;;;;;5034635;28;20160;-79
2023/04/13 10:08:48;;;;;;;71.25;5.75;;;10.60;98.00;;;;;;5035145;28;20166;-78
2023/04/13 10:11:15;;;;;;;69.55;6.55;;;10.60;99.90;;;;;;5037317;28;20158;-79
2023/04/13 10:13:52;;;;;;;75.10;6.57;;;10.60;99.90;;;;;;5038575;28;20240;-79
2023/04/13 10:16:28;;;;;;;72.55;5.82;;;10.90;99.90;;;;;;5038225;28;20173;-79
2023/04/13 10:19:06;;;;;;;71.22;8.23;;;11.40;99.90;;;;;;5039529;28;20153;-79
2023/04/13 10:21:38;;;;;;;74.45;4.93;;;11.80;99.90;;;;;;5039693;28;20209;-79
2023/04/13 10:24:08;;;;;;;71.63;6.25;;;12.10;99.90;;;;;;5039276;28;20239;-79
2023/04/13 10:26:35;;;;;;;74.80;5.88;;;12.20;99.90;;;;;;5038892;28;20161;-79
2023/04/13 10:29:02;;;;;;;71.15;5.90;;;12.40;99.90;;;;;;5038657;28;20169;-79
2023/04/13 10:31:45;;;;;;;72.97;5.07;;;12.60;99.90;;;;;;5039689;28;20644;-79
2023/04/13 10:34:29;;;;;;;71.53;5.50;;;12.90;98.00;;;;;;5038328;28;20204;-79
2023/04/13 10:36:58;;;;;;;71.53;4.07;;;13.10;93.00;;;;;;5036999;28;20176;-79
2023/04/13 10:39:26;;;;;;;69.35;4.63;;;13.30;70.00;;;;;;5036928;28;20166;-79
2023/04/13 10:42:05;;;;;;;74.13;5.25;;;13.40;76.70;;;;;;5037187;28;20252;-79
2023/04/13 10:44:41;;;;;;;70.57;5.38;;;13.30;35.30;;;;;;5038773;28;20185;-80
2023/04/13 10:47:07;;;;;;;70.47;4.30;;;12.90;45.90;;;;;;5038627;28;20165;-80
2023/04/13 10:49:33;;;;;;;71.15;5.13;;;12.70;45.50;;;;;;5038887;28;20153;-80
2023/04/13 10:51:59;;;;;;;68.90;5.93;;;12.50;32.40;;;;;;5038972;28;20171;-80
2023/04/13 10:54:26;;;;;;;66.77;4.80;;;12.40;37.40;;;;;;5039159;28;20553;-80
2023/04/13 10:57:27;;;;;;;68.85;5.18;;;12.60;37.30;;;;;;5038377;28;20183;-80
2023/04/13 10:59:55;;;;;;;67.93;4.53;;;12.80;54.40;;;;;;5042215;28;20194;-80
2023/04/13 11:02:24;;;;;;;70.30;5.40;;;13.10;42.00;;;;;;5038877;28;20165;-81
2023/04/13 11:04:51;;;;;;;67.22;5.15;;;13.40;43.10;;;;;;5038810;28;20184;-80
2023/04/13 11:07:20;;;;;;;69.37;5.93;;;13.70;24.10;;;;;;5038751;28;20208;-81
2023/04/13 11:09:46;;;;;;;67.75;5.13;;;13.80;24.40;;;;;;5038950;28;20408;-81
2023/04/13 11:12:16;;;;;;;69.60;5.40;;;13.80;4.70;;;;;;5038863;28;20174;-81
2023/04/13 11:14:46;;;;;;;79.55;5.03;;;13.70;8.30;;;;;;5038088;28;20608;-81
2023/04/13 11:17:17;;;;;;;74.97;5.83;;;13.50;5.70;;;;;;5038988;28;20171;-81
2023/04/13 11:19:47;;;;;;;71.03;4.65;;;13.20;1.40;;;;;;5039192;28;20462;-81
2023/04/13 11:22:21;;;;;;;71.93;5.43;;;13.00;2.20;;;;;;5038436;28;20307;-81
2023/04/13 11:24:47;;;;;;;77.70;4.93;;;12.70;4.00;;;;;;5038139;28;20185;-81
2023/04/13 11:27:17;;;;;;;71.75;5.43;;;12.40;8.60;;;;;;5039228;28;20165;-81
2023/04/13 11:29:43;;;;;;;75.05;5.40;;;12.30;12.90;;;;;;5039187;28;20629;-81
2023/04/13 11:32:19;;;;;;;72.90;5.90;;;12.20;17.80;;;;;;5038366;28;20189;-81
2023/04/13 11:34:48;;;;;;;71.45;5.55;;;12.30;12.30;;;;;;5039083;28;20207;-81
2023/04/13 11:37:14;;;;;;;73.40;5.60;;;12.30;9.20;;;;;;5038703;28;20185;-81
2023/04/13 11:39:42;;;;;;;71.05;4.97;;;12.40;17.00;;;;;;5039133;28;20173;-81
2023/04/13 11:42:09;;;;;;;72.63;5.55;;;12.60;6.30;;;;;;5038883;28;20528;-81
2023/04/13 11:44:35;;;;;;;70.28;5.00;;;12.80;10.60;;;;;;5039155;28;20268;-81
2023/04/13 11:47:02;;;;;;;70.65;5.63;;;13.00;1.00;;;;;;5038598;28;20230;-81
2023/04/13 11:49:30;;;;;;;71.68;4.80;;;13.00;1.00;;;;;;5038072;28;20191;-81
2023/04/13 11:51:57;;;;;;;67.13;4.07;;;13.10;1.00;;;;;;5038708;28;20248;-81
2023/04/13 11:54:23;;;;;;;75.22;4.65;;;13.10;1.00;;;;;;5043645;23;20225;-81
2023/04/13 11:56:49;;;;;;;67.03;4.10;;;13.10;1.00;;;;;;5017037;28;20166;-81
2023/04/13 11:59:15;;;;;;;69.43;3.57;;;13.30;1.00;;;;;;5018844;28;20401;-81
2023/04/13 12:01:48;;;;;;;70.97;3.60;;;13.60;1.00;;;;;;5019074;28;20397;-81
2023/04/13 12:04:13;;;;;;;73.30;4.03;;;13.80;1.00;;;;;;5016965;28;20456;-81
2023/04/13 12:06:41;;;;;;;67.83;3.63;;;13.90;1.00;;;;;;5018023;28;20177;-81
2023/04/13 12:09:08;;;;;;;70.85;4.60;;;13.80;1.00;;;;;;5016792;28;20728;-81
2023/04/13 12:11:38;;;;;;;66.20;4.20;;;13.80;1.00;;;;;;5018920;28;20188;-81
2023/04/13 12:14:04;;;;;;;67.43;4.37;;;13.80;1.00;;;;;;5018077;28;20821;-81
2023/04/13 12:16:32;;;;;;;71.80;5.00;;;13.60;1.00;;;;;;5018174;28;20416;-81
2023/04/13 12:19:08;;;;;;;66.75;5.32;;;13.50;1.00;;;;;;5017196;28;20503;-81
2023/04/13 12:21:36;;;;;;;70.25;5.25;;;13.40;1.00;;;;;;5122819;23;20227;-87
2023/04/13 12:24:03;;;;;;;70.28;4.25;;;13.40;1.00;;;;;;5041555;28;20187;-87
2023/04/13 12:26:36;;;;;;;68.75;4.38;;;13.40;1.00;;;;;;5041216;28;20196;-87
2023/04/13 12:29:06;;;;;;;69.72;5.13;;;13.70;1.00;;;;;;5040534;28;20629;-87
2023/04/13 12:31:36;;;;;;;71.80;6.25;;;14.00;1.00;;;;;;5040940;28;20173;-87
2023/04/13 12:34:03;;;;;;;70.30;5.28;;;14.30;1.00;;;;;;5040834;28;20181;-86
2023/04/13 12:36:30;;;;;;;77.07;4.97;;;14.50;1.00;;;;;;5040936;28;20198;-88
2023/04/13 12:38:59;;;;;;;75.72;4.75;;;14.70;1.00;;;;;;5041174;28;20248;-87
2023/04/13 12:41:26;;;;;;;74.70;4.83;;;15.10;1.00;;;;;;5039720;28;20621;-87
2023/04/13 12:43:51;;;;;;;71.13;5.50;;;15.30;1.00;;;;;;5040116;28;20412;-87
2023/04/13 12:46:17;;;;;;;70.93;5.37;;;15.60;1.00;;;;;;5039264;28;20469;-87
2023/04/13 12:48:43;;;;;;;70.13;3.50;;;15.70;1.00;;;;;;5039988;28;20400;-88
2023/04/13 12:51:09;;;;;;;71.90;4.23;;;15.80;1.00;;;;;;5040032;28;20407;-87
2023/04/13 12:53:35;;;;;;;71.87;4.23;;;15.70;1.00;;;;;;5040626;28;20177;-88
2023/04/13 12:56:01;;;;;;;67.87;3.60;;;15.40;1.00;;;;;;5039772;28;20875;-87
2023/04/13 12:58:27;;;;;;;67.10;3.73;;;15.20;1.00;;;;;;5039191;28;20760;-87
2023/04/13 13:00:54;;;;;;;68.87;4.00;;;15.40;1.00;;;;;;5036195;28;20415;-88
2023/04/13 13:03:23;;;;;;;72.27;3.90;;;15.50;1.00;;;;;;5038833;28;20506;-88
2023/04/13 13:05:48;;;;;;;69.53;4.47;;;15.80;1.00;;;;;;5036092;28;20428;-87
2023/04/13 13:08:15;;;;;;;70.93;4.20;;;16.00;1.00;;;;;;5036917;28;20788;-87
2023/04/13 13:10:41;;;;;;;68.97;3.80;;;16.00;1.00;;;;;;5038220;28;20851;-87
2023/04/13 13:13:07;;;;;;;68.27;4.10;;;16.20;1.00;;;;;;5039988;28;20459;-86
2023/04/13 13:15:32;;;;;;;72.37;3.70;;;16.40;1.00;;;;;;5037248;28;20498;-87